Terminal Aerodrome Forecast
Issued by NWS Shreveport, LA

Home | Current Version | Previous Version | Text Only | Print | Product List | Glossary On
Versions: 1 2 3 4 5 6 7 8 9 10 11 12 13 14 15 16 17
000
FTUS44 KSHV 201100
TAFMLU
TAF
KMLU 201120Z 2012/2112 00000KT 3SM BR BKN250
      TEMPO 2012/2013 3/4SM BR
     FM201300 VRB03KT P6SM BKN250
     FM201700 13006KT P6SM SCT060 SCT250
     FM210100 VRB03KT P6SM SCT060 BKN250
     FM210500 VRB03KT P6SM BKN080 BKN250=

USA.gov is the U.S. government's official web portal to all federal, state and local government web resources and services.